Terminal Aerodrome Forecast
Issued by NWS

Home | Current Version | Previous Version | Text Only | Print | Product List | Glossary On
Versions: 1 2 3 4 5 6 7 8 9 10 11 12 13 14 15
000
FTUS43 KABR 151725
TAFPIR
TAF
KPIR 151725Z 1518/1618 25014KT P6SM OVC200
     FM152200 26009KT P6SM SCT200
     FM161200 31007KT P6SM BKN200=

USA.gov is the U.S. government's official web portal to all federal, state and local government web resources and services.